sensor_id;sensor_type;location;lat;lon;timestamp;P1;durP1;ratioP1;P2;durP2;ratioP2
13866;SDS011;7003;46.982;15.248;2022-07-23T00:00:32;10.27;;;9.25;;
13866;SDS011;7003;46.982;15.248;2022-07-23T00:03:02;10.02;;;9.13;;
13866;SDS011;7003;46.982;15.248;2022-07-23T00:05:29;10.60;;;9.75;;
13866;SDS011;7003;46.982;15.248;2022-07-23T00:07:56;9.65;;;8.85;;
13866;SDS011;7003;46.982;15.248;2022-07-23T00:10:23;10.13;;;9.32;;
13866;SDS011;7003;46.982;15.248;2022-07-23T00:12:50;9.43;;;8.63;;
13866;SDS011;7003;46.982;15.248;2022-07-23T00:15:17;10.43;;;9.63;;
13866;SDS011;7003;46.982;15.248;2022-07-23T00:17:46;10.15;;;9.25;;
13866;SDS011;7003;46.982;15.248;2022-07-23T00:20:16;10.32;;;9.40;;
13866;SDS011;7003;46.982;15.248;2022-07-23T00:22:46;11.30;;;10.27;;
13866;SDS011;7003;46.982;15.248;2022-07-23T00:25:16;10.60;;;9.52;;
13866;SDS011;7003;46.982;15.248;2022-07-23T00:27:43;8.90;;;8.20;;
13866;SDS011;7003;46.982;15.248;2022-07-23T00:30:10;10.25;;;9.25;;
13866;SDS011;7003;46.982;15.248;2022-07-23T00:32:47;10.73;;;9.73;;
13866;SDS011;7003;46.982;15.248;2022-07-23T00:35:16;8.70;;;7.72;;
13866;SDS011;7003;46.982;15.248;2022-07-23T00:37:45;9.82;;;9.02;;
13866;SDS011;7003;46.982;15.248;2022-07-23T00:40:12;8.95;;;8.15;;
13866;SDS011;7003;46.982;15.248;2022-07-23T00:42:41;10.40;;;9.25;;
13866;SDS011;7003;46.982;15.248;2022-07-23T00:45:09;13.38;;;10.50;;
13866;SDS011;7003;46.982;15.248;2022-07-23T00:47:37;11.43;;;10.20;;
13866;SDS011;7003;46.982;15.248;2022-07-23T00:50:09;10.30;;;9.20;;
13866;SDS011;7003;46.982;15.248;2022-07-23T00:52:38;9.55;;;8.68;;
13866;SDS011;7003;46.982;15.248;2022-07-23T00:55:09;10.82;;;9.75;;
13866;SDS011;7003;46.982;15.248;2022-07-23T00:57:40;9.73;;;8.80;;
13866;SDS011;7003;46.982;15.248;2022-07-23T01:00:10;10.70;;;9.68;;
13866;SDS011;7003;46.982;15.248;2022-07-23T01:02:42;10.65;;;9.75;;
13866;SDS011;7003;46.982;15.248;2022-07-23T01:05:11;11.85;;;10.68;;
13866;SDS011;7003;46.982;15.248;2022-07-23T01:07:40;10.18;;;9.27;;
13866;SDS011;7003;46.982;15.248;2022-07-23T01:10:12;11.02;;;10.05;;
13866;SDS011;7003;46.982;15.248;2022-07-23T01:13:00;11.05;;;10.13;;
13866;SDS011;7003;46.982;15.248;2022-07-23T01:15:31;11.60;;;10.55;;
13866;SDS011;7003;46.982;15.248;2022-07-23T01:17:59;10.25;;;9.45;;
13866;SDS011;7003;46.982;15.248;2022-07-23T01:20:30;9.35;;;8.50;;
13866;SDS011;7003;46.982;15.248;2022-07-23T01:22:59;10.32;;;9.43;;
13866;SDS011;7003;46.982;15.248;2022-07-23T01:25:28;9.98;;;9.10;;
13866;SDS011;7003;46.982;15.248;2022-07-23T01:27:57;10.48;;;9.57;;
13866;SDS011;7003;46.982;15.248;2022-07-23T01:30:27;11.38;;;10.43;;
13866;SDS011;7003;46.982;15.248;2022-07-23T01:32:54;11.88;;;10.68;;
13866;SDS011;7003;46.982;15.248;2022-07-23T01:35:24;12.40;;;11.30;;
13866;SDS011;7003;46.982;15.248;2022-07-23T01:37:54;15.18;;;10.85;;
13866;SDS011;7003;46.982;15.248;2022-07-23T01:40:22;12.30;;;11.20;;
13866;SDS011;7003;46.982;15.248;2022-07-23T01:42:49;11.40;;;10.35;;
13866;SDS011;7003;46.982;15.248;2022-07-23T01:45:16;11.73;;;10.60;;
13866;SDS011;7003;46.982;15.248;2022-07-23T01:47:43;11.77;;;10.75;;
13866;SDS011;7003;46.982;15.248;2022-07-23T01:50:14;10.90;;;9.75;;
13866;SDS011;7003;46.982;15.248;2022-07-23T01:52:43;11.75;;;10.65;;
13866;SDS011;7003;46.982;15.248;2022-07-23T01:55:13;10.98;;;9.43;;
13866;SDS011;7003;46.982;15.248;2022-07-23T01:57:44;11.98;;;10.98;;
13866;SDS011;7003;46.982;15.248;2022-07-23T02:00:14;12.85;;;11.60;;
13866;SDS011;7003;46.982;15.248;2022-07-23T02:02:42;13.73;;;12.07;;
13866;SDS011;7003;46.982;15.248;2022-07-23T02:05:09;13.57;;;11.23;;
13866;SDS011;7003;46.982;15.248;2022-07-23T02:07:37;12.30;;;11.25;;
13866;SDS011;7003;46.982;15.248;2022-07-23T02:10:04;11.60;;;10.60;;
13866;SDS011;7003;46.982;15.248;2022-07-23T02:12:32;10.80;;;9.75;;
13866;SDS011;7003;46.982;15.248;2022-07-23T02:15:04;12.93;;;11.73;;
13866;SDS011;7003;46.982;15.248;2022-07-23T02:17:35;10.50;;;9.70;;
13866;SDS011;7003;46.982;15.248;2022-07-23T02:20:03;10.45;;;9.40;;
13866;SDS011;7003;46.982;15.248;2022-07-23T02:22:33;12.27;;;11.10;;
13866;SDS011;7003;46.982;15.248;2022-07-23T02:25:01;11.52;;;10.27;;
13866;SDS011;7003;46.982;15.248;2022-07-23T02:27:29;17.45;;;10.43;;
13866;SDS011;7003;46.982;15.248;2022-07-23T02:29:56;12.75;;;10.43;;
13866;SDS011;7003;46.982;15.248;2022-07-23T02:32:25;12.98;;;11.68;;
13866;SDS011;7003;46.982;15.248;2022-07-23T02:34:56;11.35;;;10.40;;
13866;SDS011;7003;46.982;15.248;2022-07-23T02:37:23;12.35;;;11.05;;
13866;SDS011;7003;46.982;15.248;2022-07-23T02:39:52;12.75;;;11.52;;
13866;SDS011;7003;46.982;15.248;2022-07-23T02:42:19;11.60;;;10.60;;
13866;SDS011;7003;46.982;15.248;2022-07-23T02:44:49;12.98;;;11.70;;
13866;SDS011;7003;46.982;15.248;2022-07-23T02:47:16;16.08;;;9.90;;
13866;SDS011;7003;46.982;15.248;2022-07-23T02:49:45;12.40;;;11.38;;
13866;SDS011;7003;46.982;15.248;2022-07-23T02:52:15;12.32;;;11.23;;
13866;SDS011;7003;46.982;15.248;2022-07-23T02:54:47;10.95;;;10.05;;
13866;SDS011;7003;46.982;15.248;2022-07-23T02:57:15;12.55;;;11.35;;
13866;SDS011;7003;46.982;15.248;2022-07-23T02:59:44;11.30;;;10.25;;
13866;SDS011;7003;46.982;15.248;2022-07-23T03:02:12;11.45;;;10.40;;
13866;SDS011;7003;46.982;15.248;2022-07-23T03:04:39;11.80;;;10.43;;
13866;SDS011;7003;46.982;15.248;2022-07-23T03:07:09;11.63;;;10.60;;
13866;SDS011;7003;46.982;15.248;2022-07-23T03:09:36;11.18;;;10.07;;
13866;SDS011;7003;46.982;15.248;2022-07-23T03:12:03;11.60;;;10.60;;
13866;SDS011;7003;46.982;15.248;2022-07-23T03:14:31;11.43;;;10.38;;
13866;SDS011;7003;46.982;15.248;2022-07-23T03:16:58;11.43;;;10.48;;
13866;SDS011;7003;46.982;15.248;2022-07-23T03:19:28;11.40;;;10.40;;
13866;SDS011;7003;46.982;15.248;2022-07-23T03:21:56;11.32;;;10.23;;
13866;SDS011;7003;46.982;15.248;2022-07-23T03:24:29;12.95;;;11.10;;
13866;SDS011;7003;46.982;15.248;2022-07-23T03:27:13;15.68;;;12.13;;
13866;SDS011;7003;46.982;15.248;2022-07-23T03:29:43;11.13;;;10.23;;
13866;SDS011;7003;46.982;15.248;2022-07-23T03:32:13;12.10;;;10.32;;
13866;SDS011;7003;46.982;15.248;2022-07-23T03:34:41;12.95;;;11.20;;
13866;SDS011;7003;46.982;15.248;2022-07-23T03:37:08;12.48;;;11.38;;
13866;SDS011;7003;46.982;15.248;2022-07-23T03:39:39;15.98;;;11.27;;
13866;SDS011;7003;46.982;15.248;2022-07-23T03:42:09;10.60;;;9.68;;
13866;SDS011;7003;46.982;15.248;2022-07-23T03:44:37;12.90;;;11.75;;
13866;SDS011;7003;46.982;15.248;2022-07-23T03:47:07;11.57;;;10.13;;
13866;SDS011;7003;46.982;15.248;2022-07-23T03:49:37;13.50;;;12.15;;
13866;SDS011;7003;46.982;15.248;2022-07-23T03:52:08;12.35;;;11.10;;
13866;SDS011;7003;46.982;15.248;2022-07-23T03:54:37;14.57;;;12.88;;
13866;SDS011;7003;46.982;15.248;2022-07-23T03:57:08;13.93;;;12.02;;
13866;SDS011;7003;46.982;15.248;2022-07-23T03:59:36;15.45;;;13.25;;
13866;SDS011;7003;46.982;15.248;2022-07-23T04:02:07;13.43;;;12.30;;
13866;SDS011;7003;46.982;15.248;2022-07-23T04:04:37;12.18;;;11.05;;
13866;SDS011;7003;46.982;15.248;2022-07-23T04:07:05;12.88;;;11.77;;
13866;SDS011;7003;46.982;15.248;2022-07-23T04:09:33;12.32;;;11.18;;
13866;SDS011;7003;46.982;15.248;2022-07-23T04:12:05;18.08;;;12.85;;
13866;SDS011;7003;46.982;15.248;2022-07-23T04:14:35;13.73;;;12.30;;
13866;SDS011;7003;46.982;15.248;2022-07-23T04:17:07;12.20;;;10.98;;
13866;SDS011;7003;46.982;15.248;2022-07-23T04:19:38;12.90;;;11.73;;
13866;SDS011;7003;46.982;15.248;2022-07-23T04:22:07;12.07;;;10.98;;
13866;SDS011;7003;46.982;15.248;2022-07-23T04:24:40;12.80;;;11.60;;
13866;SDS011;7003;46.982;15.248;2022-07-23T04:27:12;14.25;;;12.77;;
13866;SDS011;7003;46.982;15.248;2022-07-23T04:29:42;17.45;;;11.80;;
13866;SDS011;7003;46.982;15.248;2022-07-23T04:32:10;14.63;;;13.32;;
13866;SDS011;7003;46.982;15.248;2022-07-23T04:34:38;14.20;;;12.90;;
13866;SDS011;7003;46.982;15.248;2022-07-23T04:37:08;14.68;;;13.23;;
13866;SDS011;7003;46.982;15.248;2022-07-23T04:39:37;12.45;;;11.40;;
13866;SDS011;7003;46.982;15.248;2022-07-23T04:42:05;13.27;;;12.10;;
13866;SDS011;7003;46.982;15.248;2022-07-23T04:44:34;12.43;;;11.23;;
13866;SDS011;7003;46.982;15.248;2022-07-23T04:47:06;13.48;;;12.38;;
13866;SDS011;7003;46.982;15.248;2022-07-23T04:49:34;12.13;;;11.02;;
13866;SDS011;7003;46.982;15.248;2022-07-23T04:52:03;13.57;;;12.27;;
13866;SDS011;7003;46.982;15.248;2022-07-23T04:54:34;13.60;;;12.30;;
13866;SDS011;7003;46.982;15.248;2022-07-23T04:57:04;12.77;;;11.63;;
13866;SDS011;7003;46.982;15.248;2022-07-23T04:59:35;17.10;;;12.55;;
13866;SDS011;7003;46.982;15.248;2022-07-23T05:02:07;11.48;;;10.48;;
13866;SDS011;7003;46.982;15.248;2022-07-23T05:04:35;12.57;;;11.38;;
13866;SDS011;7003;46.982;15.248;2022-07-23T05:07:04;13.52;;;12.23;;
13866;SDS011;7003;46.982;15.248;2022-07-23T05:09:32;12.25;;;11.25;;
13866;SDS011;7003;46.982;15.248;2022-07-23T05:12:00;13.40;;;12.10;;
13866;SDS011;7003;46.982;15.248;2022-07-23T05:14:30;13.32;;;11.13;;
13866;SDS011;7003;46.982;15.248;2022-07-23T05:16:58;16.38;;;11.32;;
13866;SDS011;7003;46.982;15.248;2022-07-23T05:19:30;11.77;;;10.88;;
13866;SDS011;7003;46.982;15.248;2022-07-23T05:21:57;13.80;;;12.50;;
13866;SDS011;7003;46.982;15.248;2022-07-23T05:24:25;12.98;;;11.77;;
13866;SDS011;7003;46.982;15.248;2022-07-23T05:26:55;14.05;;;12.75;;
13866;SDS011;7003;46.982;15.248;2022-07-23T05:29:25;12.77;;;11.48;;
13866;SDS011;7003;46.982;15.248;2022-07-23T05:31:53;12.02;;;10.52;;
13866;SDS011;7003;46.982;15.248;2022-07-23T05:34:23;15.30;;;13.40;;
13866;SDS011;7003;46.982;15.248;2022-07-23T05:36:52;13.55;;;12.27;;
13866;SDS011;7003;46.982;15.248;2022-07-23T05:39:19;13.00;;;11.05;;
13866;SDS011;7003;46.982;15.248;2022-07-23T05:41:47;13.63;;;11.77;;
13866;SDS011;7003;46.982;15.248;2022-07-23T05:44:17;12.55;;;11.55;;
13866;SDS011;7003;46.982;15.248;2022-07-23T05:46:46;12.05;;;11.00;;
13866;SDS011;7003;46.982;15.248;2022-07-23T05:49:14;12.77;;;11.52;;
13866;SDS011;7003;46.982;15.248;2022-07-23T05:51:44;11.75;;;10.85;;
13866;SDS011;7003;46.982;15.248;2022-07-23T05:54:13;11.25;;;10.15;;
13866;SDS011;7003;46.982;15.248;2022-07-23T05:56:41;13.40;;;12.18;;
13866;SDS011;7003;46.982;15.248;2022-07-23T05:59:11;12.52;;;11.45;;
13866;SDS011;7003;46.982;15.248;2022-07-23T06:01:40;11.85;;;10.75;;
13866;SDS011;7003;46.982;15.248;2022-07-23T06:04:09;13.05;;;11.80;;
13866;SDS011;7003;46.982;15.248;2022-07-23T06:06:40;12.05;;;10.93;;
13866;SDS011;7003;46.982;15.248;2022-07-23T06:09:11;13.55;;;11.07;;
13866;SDS011;7003;46.982;15.248;2022-07-23T06:11:40;12.48;;;11.25;;
13866;SDS011;7003;46.982;15.248;2022-07-23T06:14:08;11.32;;;10.32;;
13866;SDS011;7003;46.982;15.248;2022-07-23T06:16:36;15.63;;;11.32;;
13866;SDS011;7003;46.982;15.248;2022-07-23T06:19:06;13.25;;;11.90;;
13866;SDS011;7003;46.982;15.248;2022-07-23T06:21:34;12.40;;;10.65;;
13866;SDS011;7003;46.982;15.248;2022-07-23T06:24:03;10.82;;;9.82;;
13866;SDS011;7003;46.982;15.248;2022-07-23T06:26:33;9.57;;;8.65;;
13866;SDS011;7003;46.982;15.248;2022-07-23T06:29:03;12.45;;;11.00;;
13866;SDS011;7003;46.982;15.248;2022-07-23T06:31:31;12.82;;;11.50;;
13866;SDS011;7003;46.982;15.248;2022-07-23T06:34:01;12.38;;;11.30;;
13866;SDS011;7003;46.982;15.248;2022-07-23T06:36:31;11.40;;;10.25;;
13866;SDS011;7003;46.982;15.248;2022-07-23T06:38:59;12.45;;;11.35;;
13866;SDS011;7003;46.982;15.248;2022-07-23T06:41:30;9.98;;;9.00;;
13866;SDS011;7003;46.982;15.248;2022-07-23T06:43:59;11.23;;;10.25;;
13866;SDS011;7003;46.982;15.248;2022-07-23T06:46:26;10.00;;;9.20;;
13866;SDS011;7003;46.982;15.248;2022-07-23T06:48:54;10.45;;;9.55;;
13866;SDS011;7003;46.982;15.248;2022-07-23T06:51:22;14.25;;;10.55;;
13866;SDS011;7003;46.982;15.248;2022-07-23T06:53:50;10.77;;;9.77;;
13866;SDS011;7003;46.982;15.248;2022-07-23T06:56:21;10.18;;;8.98;;
13866;SDS011;7003;46.982;15.248;2022-07-23T06:58:51;9.73;;;8.85;;
13866;SDS011;7003;46.982;15.248;2022-07-23T07:01:22;10.77;;;9.70;;
13866;SDS011;7003;46.982;15.248;2022-07-23T07:03:53;10.77;;;9.77;;
13866;SDS011;7003;46.982;15.248;2022-07-23T07:06:23;11.13;;;10.13;;
13866;SDS011;7003;46.982;15.248;2022-07-23T07:08:53;10.50;;;9.40;;
13866;SDS011;7003;46.982;15.248;2022-07-23T07:11:21;12.13;;;8.80;;
13866;SDS011;7003;46.982;15.248;2022-07-23T07:13:49;9.15;;;8.38;;
13866;SDS011;7003;46.982;15.248;2022-07-23T07:16:19;9.45;;;8.52;;
13866;SDS011;7003;46.982;15.248;2022-07-23T07:18:48;9.73;;;9.00;;
13866;SDS011;7003;46.982;15.248;2022-07-23T07:21:16;14.38;;;10.30;;
13866;SDS011;7003;46.982;15.248;2022-07-23T07:23:43;9.85;;;9.05;;
13866;SDS011;7003;46.982;15.248;2022-07-23T07:26:11;11.52;;;10.35;;
13866;SDS011;7003;46.982;15.248;2022-07-23T07:28:41;9.70;;;8.88;;
13866;SDS011;7003;46.982;15.248;2022-07-23T07:31:09;10.75;;;8.90;;
13866;SDS011;7003;46.982;15.248;2022-07-23T07:33:39;9.55;;;8.65;;
13866;SDS011;7003;46.982;15.248;2022-07-23T07:36:11;11.57;;;9.07;;
13866;SDS011;7003;46.982;15.248;2022-07-23T07:38:41;10.68;;;9.68;;
13866;SDS011;7003;46.982;15.248;2022-07-23T07:41:08;11.05;;;10.05;;
13866;SDS011;7003;46.982;15.248;2022-07-23T07:43:36;11.10;;;10.20;;
13866;SDS011;7003;46.982;15.248;2022-07-23T07:46:04;11.32;;;10.25;;
13866;SDS011;7003;46.982;15.248;2022-07-23T07:48:38;9.88;;;8.85;;
13866;SDS011;7003;46.982;15.248;2022-07-23T07:51:06;9.57;;;8.73;;
13866;SDS011;7003;46.982;15.248;2022-07-23T07:53:35;9.93;;;8.95;;
13866;SDS011;7003;46.982;15.248;2022-07-23T07:56:03;10.88;;;9.90;;
13866;SDS011;7003;46.982;15.248;2022-07-23T07:58:31;10.25;;;9.13;;
13866;SDS011;7003;46.982;15.248;2022-07-23T08:00:58;9.85;;;8.85;;
13866;SDS011;7003;46.982;15.248;2022-07-23T08:03:28;10.50;;;9.60;;
13866;SDS011;7003;46.982;15.248;2022-07-23T08:05:56;8.50;;;7.93;;
13866;SDS011;7003;46.982;15.248;2022-07-23T08:08:25;10.23;;;9.35;;
13866;SDS011;7003;46.982;15.248;2022-07-23T08:10:57;9.57;;;7.78;;
13866;SDS011;7003;46.982;15.248;2022-07-23T08:13:27;10.55;;;9.70;;
13866;SDS011;7003;46.982;15.248;2022-07-23T08:15:57;9.30;;;8.40;;
13866;SDS011;7003;46.982;15.248;2022-07-23T08:18:28;8.75;;;8.05;;
13866;SDS011;7003;46.982;15.248;2022-07-23T08:20:58;10.32;;;9.43;;
13866;SDS011;7003;46.982;15.248;2022-07-23T08:23:25;8.40;;;7.70;;
13866;SDS011;7003;46.982;15.248;2022-07-23T08:25:53;12.30;;;8.32;;
13866;SDS011;7003;46.982;15.248;2022-07-23T08:28:26;10.63;;;8.77;;
13866;SDS011;7003;46.982;15.248;2022-07-23T08:30:53;9.15;;;8.45;;
13866;SDS011;7003;46.982;15.248;2022-07-23T08:33:23;8.68;;;7.97;;
13866;SDS011;7003;46.982;15.248;2022-07-23T08:35:51;9.57;;;8.27;;
13866;SDS011;7003;46.982;15.248;2022-07-23T08:38:21;9.38;;;8.55;;
13866;SDS011;7003;46.982;15.248;2022-07-23T08:40:51;8.60;;;8.00;;
13866;SDS011;7003;46.982;15.248;2022-07-23T08:43:22;9.20;;;8.30;;
13866;SDS011;7003;46.982;15.248;2022-07-23T08:45:55;7.97;;;7.28;;
13866;SDS011;7003;46.982;15.248;2022-07-23T08:48:27;9.05;;;8.27;;
13866;SDS011;7003;46.982;15.248;2022-07-23T08:50:56;8.93;;;8.23;;
13866;SDS011;7003;46.982;15.248;2022-07-23T08:53:25;9.07;;;8.18;;
13866;SDS011;7003;46.982;15.248;2022-07-23T08:55:54;8.07;;;7.38;;
13866;SDS011;7003;46.982;15.248;2022-07-23T08:58:27;6.72;;;6.22;;
13866;SDS011;7003;46.982;15.248;2022-07-23T09:00:57;6.88;;;6.30;;
13866;SDS011;7003;46.982;15.248;2022-07-23T09:03:25;6.38;;;5.72;;
13866;SDS011;7003;46.982;15.248;2022-07-23T09:05:58;5.47;;;4.97;;
13866;SDS011;7003;46.982;15.248;2022-07-23T09:08:33;6.85;;;6.15;;
13866;SDS011;7003;46.982;15.248;2022-07-23T09:11:03;6.65;;;6.07;;
13866;SDS011;7003;46.982;15.248;2022-07-23T09:13:34;6.95;;;5.00;;
13866;SDS011;7003;46.982;15.248;2022-07-23T09:16:07;5.72;;;5.25;;
13866;SDS011;7003;46.982;15.248;2022-07-23T09:18:42;6.30;;;5.78;;
13866;SDS011;7003;46.982;15.248;2022-07-23T09:21:12;7.88;;;5.75;;
13866;SDS011;7003;46.982;15.248;2022-07-23T09:23:46;6.57;;;5.97;;
13866;SDS011;7003;46.982;15.248;2022-07-23T09:26:31;5.72;;;5.18;;
13866;SDS011;7003;46.982;15.248;2022-07-23T09:29:03;5.32;;;4.95;;
13866;SDS011;7003;46.982;15.248;2022-07-23T09:31:48;6.90;;;5.40;;
13866;SDS011;7003;46.982;15.248;2022-07-23T09:34:20;6.22;;;5.72;;
13866;SDS011;7003;46.982;15.248;2022-07-23T09:36:52;6.15;;;5.57;;
13866;SDS011;7003;46.982;15.248;2022-07-23T09:39:25;6.15;;;5.65;;
13866;SDS011;7003;46.982;15.248;2022-07-23T09:41:53;7.05;;;6.45;;
13866;SDS011;7003;46.982;15.248;2022-07-23T09:44:21;6.90;;;6.15;;
13866;SDS011;7003;46.982;15.248;2022-07-23T09:46:57;7.05;;;6.55;;
13866;SDS011;7003;46.982;15.248;2022-07-23T09:49:29;5.55;;;5.05;;
13866;SDS011;7003;46.982;15.248;2022-07-23T09:51:58;9.25;;;5.10;;
13866;SDS011;7003;46.982;15.248;2022-07-23T09:54:29;5.82;;;5.32;;
13866;SDS011;7003;46.982;15.248;2022-07-23T09:56:59;7.22;;;4.72;;
13866;SDS011;7003;46.982;15.248;2022-07-23T09:59:31;5.22;;;4.72;;
13866;SDS011;7003;46.982;15.248;2022-07-23T10:02:03;5.13;;;4.60;;
13866;SDS011;7003;46.982;15.248;2022-07-23T10:04:35;4.72;;;4.38;;
13866;SDS011;7003;46.982;15.248;2022-07-23T10:07:05;5.60;;;5.10;;
13866;SDS011;7003;46.982;15.248;2022-07-23T10:09:39;6.95;;;5.00;;
13866;SDS011;7003;46.982;15.248;2022-07-23T10:12:09;4.85;;;4.45;;
13866;SDS011;7003;46.982;15.248;2022-07-23T10:15:02;4.65;;;4.25;;
13866;SDS011;7003;46.982;15.248;2022-07-23T10:17:31;6.40;;;5.10;;
13866;SDS011;7003;46.982;15.248;2022-07-23T10:19:59;4.18;;;3.88;;
13866;SDS011;7003;46.982;15.248;2022-07-23T10:22:29;6.85;;;5.10;;
13866;SDS011;7003;46.982;15.248;2022-07-23T10:25:08;4.65;;;4.25;;
13866;SDS011;7003;46.982;15.248;2022-07-23T10:30:41;4.57;;;4.25;;
13866;SDS011;7003;46.982;15.248;2022-07-23T10:33:27;5.70;;;4.57;;
13866;SDS011;7003;46.982;15.248;2022-07-23T10:36:01;4.30;;;4.00;;
13866;SDS011;7003;46.982;15.248;2022-07-23T10:38:35;14.45;;;4.95;;
13866;SDS011;7003;46.982;15.248;2022-07-23T10:41:12;5.00;;;4.60;;
13866;SDS011;7003;46.982;15.248;2022-07-23T10:43:40;3.92;;;3.55;;
13866;SDS011;7003;46.982;15.248;2022-07-23T10:46:20;4.38;;;4.07;;
13866;SDS011;7003;46.982;15.248;2022-07-23T10:54:53;3.92;;;3.58;;
13866;SDS011;7003;46.982;15.248;2022-07-23T10:57:23;4.15;;;3.35;;
13866;SDS011;7003;46.982;15.248;2022-07-23T11:02:49;3.95;;;3.63;;
13866;SDS011;7003;46.982;15.248;2022-07-23T11:05:19;3.35;;;3.15;;
13866;SDS011;7003;46.982;15.248;2022-07-23T11:10:40;3.55;;;3.35;;
13866;SDS011;7003;46.982;15.248;2022-07-23T11:13:31;3.42;;;3.15;;
13866;SDS011;7003;46.982;15.248;2022-07-23T11:16:06;3.90;;;3.58;;
13866;SDS011;7003;46.982;15.248;2022-07-23T11:18:55;3.55;;;3.35;;
13866;SDS011;7003;46.982;15.248;2022-07-23T11:21:45;4.72;;;4.35;;
13866;SDS011;7003;46.982;15.248;2022-07-23T11:24:14;6.38;;;3.45;;
13866;SDS011;7003;46.982;15.248;2022-07-23T11:26:50;4.07;;;3.72;;
13866;SDS011;7003;46.982;15.248;2022-07-23T11:29:41;3.90;;;3.60;;
13866;SDS011;7003;46.982;15.248;2022-07-23T11:32:22;3.83;;;3.53;;
13866;SDS011;7003;46.982;15.248;2022-07-23T11:35:18;3.38;;;3.17;;
13866;SDS011;7003;46.982;15.248;2022-07-23T11:37:51;5.15;;;4.53;;
13866;SDS011;7003;46.982;15.248;2022-07-23T11:40:24;4.68;;;4.28;;
13866;SDS011;7003;46.982;15.248;2022-07-23T11:42:56;4.85;;;4.03;;
13866;SDS011;7003;46.982;15.248;2022-07-23T11:45:29;6.18;;;4.63;;
13866;SDS011;7003;46.982;15.248;2022-07-23T11:48:02;4.35;;;4.00;;
13866;SDS011;7003;46.982;15.248;2022-07-23T11:50:33;5.15;;;4.75;;
13866;SDS011;7003;46.982;15.248;2022-07-23T11:53:02;3.88;;;3.58;;
13866;SDS011;7003;46.982;15.248;2022-07-23T11:55:31;4.05;;;3.75;;
13866;SDS011;7003;46.982;15.248;2022-07-23T11:58:02;4.20;;;3.90;;
13866;SDS011;7003;46.982;15.248;2022-07-23T12:00:30;5.25;;;4.50;;
13866;SDS011;7003;46.982;15.248;2022-07-23T12:02:59;4.35;;;4.03;;
13866;SDS011;7003;46.982;15.248;2022-07-23T12:05:32;4.93;;;4.45;;
13866;SDS011;7003;46.982;15.248;2022-07-23T12:08:07;5.88;;;5.35;;
13866;SDS011;7003;46.982;15.248;2022-07-23T12:10:39;4.53;;;4.22;;
13866;SDS011;7003;46.982;15.248;2022-07-23T12:13:11;4.20;;;3.90;;
13866;SDS011;7003;46.982;15.248;2022-07-23T12:15:45;5.00;;;4.53;;
13866;SDS011;7003;46.982;15.248;2022-07-23T12:18:17;4.40;;;4.10;;
13866;SDS011;7003;46.982;15.248;2022-07-23T12:20:48;5.25;;;4.68;;
13866;SDS011;7003;46.982;15.248;2022-07-23T12:23:21;5.30;;;4.85;;
13866;SDS011;7003;46.982;15.248;2022-07-23T12:25:50;4.60;;;4.22;;
13866;SDS011;7003;46.982;15.248;2022-07-23T12:28:21;4.65;;;4.30;;
13866;SDS011;7003;46.982;15.248;2022-07-23T12:30:54;4.90;;;4.50;;
13866;SDS011;7003;46.982;15.248;2022-07-23T12:33:24;7.72;;;5.35;;
13866;SDS011;7003;46.982;15.248;2022-07-23T12:35:54;6.03;;;5.43;;
13866;SDS011;7003;46.982;15.248;2022-07-23T12:38:25;6.57;;;4.95;;
13866;SDS011;7003;46.982;15.248;2022-07-23T12:40:57;6.47;;;4.85;;
13866;SDS011;7003;46.982;15.248;2022-07-23T12:43:28;5.13;;;4.70;;
13866;SDS011;7003;46.982;15.248;2022-07-23T12:46:02;5.82;;;5.38;;
13866;SDS011;7003;46.982;15.248;2022-07-23T12:48:34;5.20;;;4.80;;
13866;SDS011;7003;46.982;15.248;2022-07-23T12:51:03;5.68;;;5.20;;
13866;SDS011;7003;46.982;15.248;2022-07-23T12:53:38;5.18;;;4.68;;
13866;SDS011;7003;46.982;15.248;2022-07-23T12:56:11;5.53;;;5.00;;
13866;SDS011;7003;46.982;15.248;2022-07-23T12:58:45;5.03;;;4.63;;
13866;SDS011;7003;46.982;15.248;2022-07-23T13:01:24;5.97;;;4.53;;
13866;SDS011;7003;46.982;15.248;2022-07-23T13:03:58;5.72;;;5.13;;
13866;SDS011;7003;46.982;15.248;2022-07-23T13:06:28;6.57;;;5.13;;
13866;SDS011;7003;46.982;15.248;2022-07-23T13:09:00;11.00;;;4.63;;
13866;SDS011;7003;46.982;15.248;2022-07-23T13:11:32;4.70;;;4.40;;
13866;SDS011;7003;46.982;15.248;2022-07-23T13:14:02;5.93;;;5.47;;
13866;SDS011;7003;46.982;15.248;2022-07-23T13:16:30;5.63;;;5.22;;
13866;SDS011;7003;46.982;15.248;2022-07-23T13:18:59;5.53;;;5.13;;
13866;SDS011;7003;46.982;15.248;2022-07-23T13:21:28;5.28;;;4.88;;
13866;SDS011;7003;46.982;15.248;2022-07-23T13:24:00;5.25;;;4.85;;
13866;SDS011;7003;46.982;15.248;2022-07-23T13:26:27;10.05;;;6.53;;
13866;SDS011;7003;46.982;15.248;2022-07-23T13:28:57;5.78;;;5.28;;
13866;SDS011;7003;46.982;15.248;2022-07-23T13:31:25;5.55;;;5.13;;
13866;SDS011;7003;46.982;15.248;2022-07-23T13:33:53;5.20;;;4.80;;
13866;SDS011;7003;46.982;15.248;2022-07-23T13:36:20;4.70;;;4.40;;
13866;SDS011;7003;46.982;15.248;2022-07-23T13:38:48;5.47;;;5.07;;
13866;SDS011;7003;46.982;15.248;2022-07-23T13:41:17;5.10;;;4.70;;
13866;SDS011;7003;46.982;15.248;2022-07-23T13:43:45;4.88;;;4.47;;
13866;SDS011;7003;46.982;15.248;2022-07-23T13:46:15;5.40;;;4.93;;
13866;SDS011;7003;46.982;15.248;2022-07-23T13:48:46;5.65;;;5.07;;
13866;SDS011;7003;46.982;15.248;2022-07-23T13:51:14;5.70;;;5.22;;
13866;SDS011;7003;46.982;15.248;2022-07-23T13:53:43;6.10;;;5.47;;
13866;SDS011;7003;46.982;15.248;2022-07-23T13:56:15;5.55;;;5.15;;
13866;SDS011;7003;46.982;15.248;2022-07-23T13:58:46;7.05;;;5.68;;
13866;SDS011;7003;46.982;15.248;2022-07-23T14:01:14;6.15;;;5.75;;
13866;SDS011;7003;46.982;15.248;2022-07-23T14:03:44;6.40;;;5.65;;
13866;SDS011;7003;46.982;15.248;2022-07-23T14:06:14;7.00;;;6.40;;
13866;SDS011;7003;46.982;15.248;2022-07-23T14:08:44;5.75;;;5.30;;
13866;SDS011;7003;46.982;15.248;2022-07-23T14:11:12;5.22;;;4.82;;
13866;SDS011;7003;46.982;15.248;2022-07-23T14:13:40;6.90;;;5.40;;
13866;SDS011;7003;46.982;15.248;2022-07-23T14:16:15;6.60;;;5.72;;
13866;SDS011;7003;46.982;15.248;2022-07-23T14:18:46;5.88;;;5.47;;
13866;SDS011;7003;46.982;15.248;2022-07-23T14:21:16;6.28;;;5.05;;
13866;SDS011;7003;46.982;15.248;2022-07-23T14:23:47;6.68;;;6.07;;
13866;SDS011;7003;46.982;15.248;2022-07-23T14:26:17;5.65;;;5.15;;
13866;SDS011;7003;46.982;15.248;2022-07-23T14:28:45;6.10;;;5.60;;
13866;SDS011;7003;46.982;15.248;2022-07-23T14:31:12;5.07;;;4.68;;
13866;SDS011;7003;46.982;15.248;2022-07-23T14:33:42;6.05;;;5.55;;
13866;SDS011;7003;46.982;15.248;2022-07-23T14:36:09;5.63;;;5.22;;
13866;SDS011;7003;46.982;15.248;2022-07-23T14:38:39;5.95;;;5.50;;
13866;SDS011;7003;46.982;15.248;2022-07-23T14:41:07;6.45;;;5.95;;
13866;SDS011;7003;46.982;15.248;2022-07-23T14:43:38;6.53;;;6.03;;
13866;SDS011;7003;46.982;15.248;2022-07-23T14:46:05;5.75;;;5.15;;
13866;SDS011;7003;46.982;15.248;2022-07-23T14:48:37;6.43;;;5.82;;
13866;SDS011;7003;46.982;15.248;2022-07-23T14:51:07;7.35;;;5.22;;
13866;SDS011;7003;46.982;15.248;2022-07-23T14:53:35;5.28;;;4.88;;
13866;SDS011;7003;46.982;15.248;2022-07-23T14:56:03;9.63;;;6.28;;
13866;SDS011;7003;46.982;15.248;2022-07-23T14:58:31;6.57;;;5.10;;
13866;SDS011;7003;46.982;15.248;2022-07-23T15:00:59;6.18;;;5.68;;
13866;SDS011;7003;46.982;15.248;2022-07-23T15:03:29;7.55;;;6.95;;
13866;SDS011;7003;46.982;15.248;2022-07-23T15:06:01;6.28;;;5.78;;
13866;SDS011;7003;46.982;15.248;2022-07-23T15:08:29;6.60;;;6.03;;